sensor_id;sensor_type;location;lat;lon;timestamp;pressure;altitude;pressure_sealevel;temperature;humidity
26865;BME280;40618;51.166;10.322;2023-12-20T00:01:36;97089.16;;;2.39;99.02
26865;BME280;40618;51.166;10.322;2023-12-20T00:04:06;97075.50;;;2.41;98.41
26865;BME280;40618;51.166;10.322;2023-12-20T00:06:31;97069.56;;;2.42;99.06
26865;BME280;40618;51.166;10.322;2023-12-20T00:08:57;97065.28;;;2.43;99.04
26865;BME280;40618;51.166;10.322;2023-12-20T00:11:23;97066.97;;;2.44;98.81
26865;BME280;40618;51.166;10.322;2023-12-20T00:13:49;97070.38;;;2.43;99.09
26865;BME280;40618;51.166;10.322;2023-12-20T00:16:15;97066.13;;;2.45;98.74
26865;BME280;40618;51.166;10.322;2023-12-20T00:18:40;97064.41;;;2.45;98.85
26865;BME280;40618;51.166;10.322;2023-12-20T00:21:06;97066.13;;;2.45;98.62
26865;BME280;40618;51.166;10.322;2023-12-20T00:23:32;97075.47;;;2.46;98.35
26865;BME280;40618;51.166;10.322;2023-12-20T00:25:58;97078.91;;;2.46;98.66
26865;BME280;40618;51.166;10.322;2023-12-20T00:28:23;97074.63;;;2.48;98.83
26865;BME280;40618;51.166;10.322;2023-12-20T00:30:49;97069.50;;;2.48;98.84
26865;BME280;40618;51.166;10.322;2023-12-20T00:33:14;97073.78;;;2.48;98.95
26865;BME280;40618;51.166;10.322;2023-12-20T00:35:40;97074.59;;;2.50;99.15
26865;BME280;40618;51.166;10.322;2023-12-20T00:38:06;97072.06;;;2.50;98.46
26865;BME280;40618;51.166;10.322;2023-12-20T00:40:32;97066.94;;;2.50;98.77
26865;BME280;40618;51.166;10.322;2023-12-20T00:42:58;97061.81;;;2.50;98.70
26865;BME280;40618;51.166;10.322;2023-12-20T00:45:24;97062.69;;;2.50;99.08
26865;BME280;40618;51.166;10.322;2023-12-20T00:47:50;97055.03;;;2.52;99.03
26865;BME280;40618;51.166;10.322;2023-12-20T00:50:15;97051.63;;;2.53;98.93
26865;BME280;40618;51.166;10.322;2023-12-20T00:52:41;97045.63;;;2.56;98.55
26865;BME280;40618;51.166;10.322;2023-12-20T00:55:07;97062.66;;;2.57;98.81
26865;BME280;40618;51.166;10.322;2023-12-20T00:57:33;97054.16;;;2.56;98.91
26865;BME280;40618;51.166;10.322;2023-12-20T00:59:59;97047.31;;;2.57;99.24
26865;BME280;40618;51.166;10.322;2023-12-20T01:02:25;97053.31;;;2.57;98.74
26865;BME280;40618;51.166;10.322;2023-12-20T01:04:50;97049.03;;;2.56;99.26
26865;BME280;40618;51.166;10.322;2023-12-20T01:07:16;97041.38;;;2.56;98.46
26865;BME280;40618;51.166;10.322;2023-12-20T01:09:41;97047.31;;;2.57;99.28
26865;BME280;40618;51.166;10.322;2023-12-20T01:12:07;97046.47;;;2.58;98.80
26865;BME280;40618;51.166;10.322;2023-12-20T01:14:32;97045.63;;;2.59;98.89
26865;BME280;40618;51.166;10.322;2023-12-20T01:16:58;97043.06;;;2.60;99.38
26865;BME280;40618;51.166;10.322;2023-12-20T01:19:24;97034.50;;;2.60;99.49
26865;BME280;40618;51.166;10.322;2023-12-20T01:21:50;97038.78;;;2.61;99.38
26865;BME280;40618;51.166;10.322;2023-12-20T01:24:16;97035.38;;;2.62;99.08
26865;BME280;40618;51.166;10.322;2023-12-20T01:26:41;97034.53;;;2.61;98.77
26865;BME280;40618;51.166;10.322;2023-12-20T01:29:08;97020.88;;;2.61;98.93
26865;BME280;40618;51.166;10.322;2023-12-20T01:31:33;97020.03;;;2.62;98.88
26865;BME280;40618;51.166;10.322;2023-12-20T01:33:59;97023.44;;;2.62;98.93
26865;BME280;40618;51.166;10.322;2023-12-20T01:36:25;97030.25;;;2.63;99.15
26865;BME280;40618;51.166;10.322;2023-12-20T01:38:50;97038.78;;;2.64;99.24
26865;BME280;40618;51.166;10.322;2023-12-20T01:41:16;97031.09;;;2.65;99.42
26865;BME280;40618;51.166;10.322;2023-12-20T01:43:42;97031.09;;;2.67;99.64
26865;BME280;40618;51.166;10.322;2023-12-20T01:46:08;97025.13;;;2.68;98.73
26865;BME280;40618;51.166;10.322;2023-12-20T01:48:34;97014.91;;;2.68;98.90
26865;BME280;40618;51.166;10.322;2023-12-20T01:51:00;97024.25;;;2.69;99.66
26865;BME280;40618;51.166;10.322;2023-12-20T01:53:27;97025.09;;;2.71;99.58
26865;BME280;40618;51.166;10.322;2023-12-20T01:55:56;97025.94;;;2.71;99.33
26865;BME280;40618;51.166;10.322;2023-12-20T01:58:24;97023.38;;;2.71;99.33
26865;BME280;40618;51.166;10.322;2023-12-20T02:00:51;97023.38;;;2.73;99.75
26865;BME280;40618;51.166;10.322;2023-12-20T02:03:17;97015.69;;;2.75;99.55
26865;BME280;40618;51.166;10.322;2023-12-20T02:05:44;97014.84;;;2.76;99.39
26865;BME280;40618;51.166;10.322;2023-12-20T02:08:11;97010.56;;;2.78;99.60
26865;BME280;40618;51.166;10.322;2023-12-20T02:10:37;97013.13;;;2.79;99.33
26865;BME280;40618;51.166;10.322;2023-12-20T02:13:03;97008.84;;;2.80;99.57
26865;BME280;40618;51.166;10.322;2023-12-20T02:15:29;96988.38;;;2.80;99.15
26865;BME280;40618;51.166;10.322;2023-12-20T02:17:55;96988.38;;;2.81;99.13
26865;BME280;40618;51.166;10.322;2023-12-20T02:20:21;96979.88;;;2.81;99.71
26865;BME280;40618;51.166;10.322;2023-12-20T02:22:47;96984.97;;;2.81;99.02
26865;BME280;40618;51.166;10.322;2023-12-20T02:25:12;96982.41;;;2.82;99.46
26865;BME280;40618;51.166;10.322;2023-12-20T02:27:38;96984.94;;;2.84;99.52
26865;BME280;40618;51.166;10.322;2023-12-20T02:30:05;96996.06;;;2.84;99.54
26865;BME280;40618;51.166;10.322;2023-12-20T02:32:31;96988.38;;;2.84;99.52
26865;BME280;40618;51.166;10.322;2023-12-20T02:34:57;96981.53;;;2.85;99.51
26865;BME280;40618;51.166;10.322;2023-12-20T02:37:23;96976.44;;;2.85;99.08
26865;BME280;40618;51.166;10.322;2023-12-20T02:39:49;96990.91;;;2.86;99.11
26865;BME280;40618;51.166;10.322;2023-12-20T02:42:14;96990.03;;;2.87;99.68
26865;BME280;40618;51.166;10.322;2023-12-20T02:44:40;96983.22;;;2.87;99.15
26865;BME280;40618;51.166;10.322;2023-12-20T02:47:05;96971.25;;;2.90;99.78
26865;BME280;40618;51.166;10.322;2023-12-20T02:49:31;96969.56;;;2.90;99.28
26865;BME280;40618;51.166;10.322;2023-12-20T02:51:57;96984.06;;;2.90;99.54
26865;BME280;40618;51.166;10.322;2023-12-20T02:54:22;96992.56;;;2.92;99.18
26865;BME280;40618;51.166;10.322;2023-12-20T02:56:48;96987.47;;;2.92;99.73
26865;BME280;40618;51.166;10.322;2023-12-20T02:59:14;96986.59;;;2.91;99.62
26865;BME280;40618;51.166;10.322;2023-12-20T03:01:44;96991.72;;;2.91;99.83
26865;BME280;40618;51.166;10.322;2023-12-20T03:04:11;96979.78;;;2.92;99.78
26865;BME280;40618;51.166;10.322;2023-12-20T03:06:37;96990.84;;;2.94;99.85
26865;BME280;40618;51.166;10.322;2023-12-20T03:09:03;96987.44;;;2.95;99.87
26865;BME280;40618;51.166;10.322;2023-12-20T03:11:29;96994.25;;;2.96;99.74
26865;BME280;40618;51.166;10.322;2023-12-20T03:13:55;96997.66;;;2.96;99.91
26865;BME280;40618;51.166;10.322;2023-12-20T03:16:21;96997.63;;;2.98;99.59
26865;BME280;40618;51.166;10.322;2023-12-20T03:18:47;97007.00;;;2.99;99.81
26865;BME280;40618;51.166;10.322;2023-12-20T03:21:12;97019.78;;;3.02;99.56
26865;BME280;40618;51.166;10.322;2023-12-20T03:23:38;97007.00;;;3.03;99.77
26865;BME280;40618;51.166;10.322;2023-12-20T03:26:06;97016.34;;;3.03;99.58
26865;BME280;40618;51.166;10.322;2023-12-20T03:28:33;97024.06;;;3.01;99.63
26865;BME280;40618;51.166;10.322;2023-12-20T03:30:59;97029.19;;;3.00;99.59
26865;BME280;40618;51.166;10.322;2023-12-20T03:33:25;97023.22;;;2.99;99.94
26865;BME280;40618;51.166;10.322;2023-12-20T03:35:51;97024.91;;;3.00;99.57
26865;BME280;40618;51.166;10.322;2023-12-20T03:38:16;97007.88;;;3.01;99.53
26865;BME280;40618;51.166;10.322;2023-12-20T03:40:42;96998.47;;;3.01;99.91
26865;BME280;40618;51.166;10.322;2023-12-20T03:43:08;97001.88;;;3.00;99.64
26865;BME280;40618;51.166;10.322;2023-12-20T03:45:33;96995.94;;;3.00;99.91
26865;BME280;40618;51.166;10.322;2023-12-20T03:47:59;96988.28;;;2.98;99.43
26865;BME280;40618;51.166;10.322;2023-12-20T03:50:25;96993.38;;;2.98;99.74
26865;BME280;40618;51.166;10.322;2023-12-20T03:52:51;96999.34;;;2.97;99.47
26865;BME280;40618;51.166;10.322;2023-12-20T03:55:18;97004.47;;;2.99;99.32
26865;BME280;40618;51.166;10.322;2023-12-20T03:57:44;97000.22;;;2.99;99.66
26865;BME280;40618;51.166;10.322;2023-12-20T04:00:10;97002.75;;;2.99;99.69
26865;BME280;40618;51.166;10.322;2023-12-20T04:02:40;97001.91;;;2.99;99.96
26865;BME280;40618;51.166;10.322;2023-12-20T04:05:07;97000.22;;;2.99;99.39
26865;BME280;40618;51.166;10.322;2023-12-20T04:07:35;97004.44;;;3.00;99.81
26865;BME280;40618;51.166;10.322;2023-12-20T04:10:01;97001.03;;;3.01;99.88
26865;BME280;40618;51.166;10.322;2023-12-20T04:12:28;97003.59;;;3.01;99.28
26865;BME280;40618;51.166;10.322;2023-12-20T04:14:54;97001.88;;;3.00;99.50
26865;BME280;40618;51.166;10.322;2023-12-20T04:17:20;96996.75;;;3.00;99.79
26865;BME280;40618;51.166;10.322;2023-12-20T04:19:48;97000.22;;;2.99;100.00
26865;BME280;40618;51.166;10.322;2023-12-20T04:22:14;96996.78;;;2.99;99.80
26865;BME280;40618;51.166;10.322;2023-12-20T04:24:39;96994.22;;;2.99;99.39
26865;BME280;40618;51.166;10.322;2023-12-20T04:27:07;96995.06;;;2.98;99.23
26865;BME280;40618;51.166;10.322;2023-12-20T04:29:33;97003.63;;;2.97;99.57
26865;BME280;40618;51.166;10.322;2023-12-20T04:31:59;97001.06;;;2.95;99.34
26865;BME280;40618;51.166;10.322;2023-12-20T04:34:25;97007.03;;;2.96;99.26
26865;BME280;40618;51.166;10.322;2023-12-20T04:36:51;97001.94;;;2.96;99.28
26865;BME280;40618;51.166;10.322;2023-12-20T04:39:16;97008.72;;;2.95;99.67
26865;BME280;40618;51.166;10.322;2023-12-20T04:41:42;97007.88;;;2.96;99.39
26865;BME280;40618;51.166;10.322;2023-12-20T04:44:07;97004.47;;;2.97;99.75
26865;BME280;40618;51.166;10.322;2023-12-20T04:46:33;97016.41;;;2.98;99.49
26865;BME280;40618;51.166;10.322;2023-12-20T04:48:58;97012.13;;;2.99;99.73
26865;BME280;40618;51.166;10.322;2023-12-20T04:51:24;97003.63;;;2.98;99.65
26865;BME280;40618;51.166;10.322;2023-12-20T04:53:50;96998.50;;;3.00;99.89
26865;BME280;40618;51.166;10.322;2023-12-20T04:56:15;97001.88;;;3.02;99.71
26865;BME280;40618;51.166;10.322;2023-12-20T04:58:42;96998.47;;;3.01;99.80
26865;BME280;40618;51.166;10.322;2023-12-20T05:01:08;97003.59;;;3.01;99.62
26865;BME280;40618;51.166;10.322;2023-12-20T05:03:35;97002.72;;;3.02;99.47
26865;BME280;40618;51.166;10.322;2023-12-20T05:06:01;97005.28;;;3.02;99.82
26865;BME280;40618;51.166;10.322;2023-12-20T05:08:26;97012.09;;;3.02;99.59
26865;BME280;40618;51.166;10.322;2023-12-20T05:10:56;97009.53;;;3.02;99.76
26865;BME280;40618;51.166;10.322;2023-12-20T05:13:21;97007.00;;;3.03;100.00
26865;BME280;40618;51.166;10.322;2023-12-20T05:15:47;97012.13;;;3.03;99.25
26865;BME280;40618;51.166;10.322;2023-12-20T05:18:13;97016.34;;;3.03;99.74
26865;BME280;40618;51.166;10.322;2023-12-20T05:20:39;97020.63;;;3.04;99.73
26865;BME280;40618;51.166;10.322;2023-12-20T05:23:05;97026.56;;;3.04;99.39
26865;BME280;40618;51.166;10.322;2023-12-20T05:25:32;97032.56;;;3.05;99.69
26865;BME280;40618;51.166;10.322;2023-12-20T05:27:57;97032.56;;;3.05;99.71
26865;BME280;40618;51.166;10.322;2023-12-20T05:30:23;97041.06;;;3.05;99.27
26865;BME280;40618;51.166;10.322;2023-12-20T05:32:49;97044.47;;;3.06;99.67
26865;BME280;40618;51.166;10.322;2023-12-20T05:35:14;97050.47;;;3.05;99.47
26865;BME280;40618;51.166;10.322;2023-12-20T05:37:41;97048.75;;;3.05;99.49
26865;BME280;40618;51.166;10.322;2023-12-20T05:40:07;97049.59;;;3.04;99.46
26865;BME280;40618;51.166;10.322;2023-12-20T05:42:36;97036.81;;;3.03;99.31
26865;BME280;40618;51.166;10.322;2023-12-20T05:45:04;97047.06;;;3.03;99.52
26865;BME280;40618;51.166;10.322;2023-12-20T05:47:31;97046.25;;;2.99;99.06
26865;BME280;40618;51.166;10.322;2023-12-20T05:49:56;97042.84;;;2.96;98.97
26865;BME280;40618;51.166;10.322;2023-12-20T05:52:22;97048.00;;;2.93;98.92
26865;BME280;40618;51.166;10.322;2023-12-20T05:54:47;97052.25;;;2.89;98.90
26865;BME280;40618;51.166;10.322;2023-12-20T05:57:13;97055.69;;;2.86;99.43
26865;BME280;40618;51.166;10.322;2023-12-20T05:59:39;97049.75;;;2.84;98.69
26865;BME280;40618;51.166;10.322;2023-12-20T06:02:04;97046.31;;;2.84;99.08
26865;BME280;40618;51.166;10.322;2023-12-20T06:04:30;97042.94;;;2.82;99.22
26865;BME280;40618;51.166;10.322;2023-12-20T06:06:56;97030.16;;;2.77;98.70
26865;BME280;40618;51.166;10.322;2023-12-20T06:09:22;97035.31;;;2.74;98.18
26865;BME280;40618;51.166;10.322;2023-12-20T06:11:47;97041.28;;;2.70;98.17
26865;BME280;40618;51.166;10.322;2023-12-20T06:14:13;97042.16;;;2.67;98.19
26865;BME280;40618;51.166;10.322;2023-12-20T06:16:38;97037.06;;;2.64;98.66
26865;BME280;40618;51.166;10.322;2023-12-20T06:19:04;97035.34;;;2.63;98.70
26865;BME280;40618;51.166;10.322;2023-12-20T06:21:30;97037.91;;;2.63;98.71
26865;BME280;40618;51.166;10.322;2023-12-20T06:23:55;97037.06;;;2.60;98.30
26865;BME280;40618;51.166;10.322;2023-12-20T06:26:21;97044.75;;;2.58;98.82
26865;BME280;40618;51.166;10.322;2023-12-20T06:28:46;97044.75;;;2.57;98.40
26865;BME280;40618;51.166;10.322;2023-12-20T06:31:12;97047.31;;;2.57;98.51
26865;BME280;40618;51.166;10.322;2023-12-20T06:33:38;97051.59;;;2.56;98.57
26865;BME280;40618;51.166;10.322;2023-12-20T06:36:06;97051.59;;;2.54;97.89
26865;BME280;40618;51.166;10.322;2023-12-20T06:38:31;97053.31;;;2.57;98.42
26865;BME280;40618;51.166;10.322;2023-12-20T06:40:57;97054.16;;;2.56;97.96
26865;BME280;40618;51.166;10.322;2023-12-20T06:43:24;97045.63;;;2.57;97.91
26865;BME280;40618;51.166;10.322;2023-12-20T06:45:49;97050.72;;;2.56;97.83
26865;BME280;40618;51.166;10.322;2023-12-20T06:48:16;97052.44;;;2.55;98.65
26865;BME280;40618;51.166;10.322;2023-12-20T06:50:41;97043.94;;;2.53;98.17
26865;BME280;40618;51.166;10.322;2023-12-20T06:53:07;97048.19;;;2.51;97.92
26865;BME280;40618;51.166;10.322;2023-12-20T06:55:36;97047.38;;;2.50;97.86
26865;BME280;40618;51.166;10.322;2023-12-20T06:58:03;97055.03;;;2.50;98.04
26865;BME280;40618;51.166;10.322;2023-12-20T07:00:29;97053.34;;;2.48;97.62
26865;BME280;40618;51.166;10.322;2023-12-20T07:02:55;97048.22;;;2.46;97.82
26865;BME280;40618;51.166;10.322;2023-12-20T07:05:21;97044.81;;;2.46;98.02
26865;BME280;40618;51.166;10.322;2023-12-20T07:07:47;97052.47;;;2.46;98.36
26865;BME280;40618;51.166;10.322;2023-12-20T07:10:13;97063.56;;;2.46;98.16
26865;BME280;40618;51.166;10.322;2023-12-20T07:12:39;97047.34;;;2.47;97.91
26865;BME280;40618;51.166;10.322;2023-12-20T07:15:05;97055.88;;;2.48;98.35
26865;BME280;40618;51.166;10.322;2023-12-20T07:17:32;97058.44;;;2.48;98.00
26865;BME280;40618;51.166;10.322;2023-12-20T07:19:59;97055.03;;;2.49;97.65
26865;BME280;40618;51.166;10.322;2023-12-20T07:22:29;97056.72;;;2.50;98.07
26865;BME280;40618;51.166;10.322;2023-12-20T07:24:59;97057.59;;;2.50;97.78
26865;BME280;40618;51.166;10.322;2023-12-20T07:27:25;97062.69;;;2.50;97.69
26865;BME280;40618;51.166;10.322;2023-12-20T07:29:51;97056.72;;;2.50;97.51
26865;BME280;40618;51.166;10.322;2023-12-20T07:32:17;97061.81;;;2.50;97.72
26865;BME280;40618;51.166;10.322;2023-12-20T07:34:42;97066.94;;;2.50;97.55
26865;BME280;40618;51.166;10.322;2023-12-20T07:37:08;97064.38;;;2.51;98.06
26865;BME280;40618;51.166;10.322;2023-12-20T07:39:35;97063.53;;;2.51;98.13
26865;BME280;40618;51.166;10.322;2023-12-20T07:42:01;97056.72;;;2.50;97.86
26865;BME280;40618;51.166;10.322;2023-12-20T07:44:26;97071.22;;;2.49;97.55
26865;BME280;40618;51.166;10.322;2023-12-20T07:46:52;97066.97;;;2.47;97.67
26865;BME280;40618;51.166;10.322;2023-12-20T07:49:19;97071.22;;;2.46;97.27
26865;BME280;40618;51.166;10.322;2023-12-20T07:51:44;97066.97;;;2.45;97.69
26865;BME280;40618;51.166;10.322;2023-12-20T07:54:10;97063.56;;;2.45;97.37
26865;BME280;40618;51.166;10.322;2023-12-20T07:56:36;97072.91;;;2.46;97.46
26865;BME280;40618;51.166;10.322;2023-12-20T07:59:01;97084.84;;;2.47;98.36
26865;BME280;40618;51.166;10.322;2023-12-20T08:01:27;97074.63;;;2.48;98.06
26865;BME280;40618;51.166;10.322;2023-12-20T08:03:52;97078.03;;;2.49;97.90
26865;BME280;40618;51.166;10.322;2023-12-20T08:06:18;97074.59;;;2.50;97.23
26865;BME280;40618;51.166;10.322;2023-12-20T08:08:43;97097.59;;;2.50;97.58
26865;BME280;40618;51.166;10.322;2023-12-20T08:11:09;97084.84;;;2.50;97.50
26865;BME280;40618;51.166;10.322;2023-12-20T08:13:34;97084.00;;;2.49;97.37
26865;BME280;40618;51.166;10.322;2023-12-20T08:16:00;97082.28;;;2.48;97.89
26865;BME280;40618;51.166;10.322;2023-12-20T08:18:28;97090.81;;;2.49;97.32
26865;BME280;40618;51.166;10.322;2023-12-20T08:20:54;97085.72;;;2.49;97.92
26865;BME280;40618;51.166;10.322;2023-12-20T08:23:20;97091.66;;;2.49;97.81
26865;BME280;40618;51.166;10.322;2023-12-20T08:25:48;97091.66;;;2.49;97.56
26865;BME280;40618;51.166;10.322;2023-12-20T08:28:14;97084.00;;;2.49;97.65
26865;BME280;40618;51.166;10.322;2023-12-20T08:30:40;97091.66;;;2.51;97.41
26865;BME280;40618;51.166;10.322;2023-12-20T08:33:06;97094.22;;;2.51;97.33
26865;BME280;40618;51.166;10.322;2023-12-20T08:35:36;97089.94;;;2.50;97.24
26865;BME280;40618;51.166;10.322;2023-12-20T08:38:02;97078.88;;;2.49;97.44
26865;BME280;40618;51.166;10.322;2023-12-20T08:40:29;97095.94;;;2.50;97.36
26865;BME280;40618;51.166;10.322;2023-12-20T08:42:55;97096.75;;;2.51;97.30
26865;BME280;40618;51.166;10.322;2023-12-20T08:45:20;97106.97;;;2.52;97.21
26865;BME280;40618;51.166;10.322;2023-12-20T08:47:46;97098.47;;;2.52;97.80
26865;BME280;40618;51.166;10.322;2023-12-20T08:50:12;97092.50;;;2.54;97.62
26865;BME280;40618;51.166;10.322;2023-12-20T08:52:37;97083.97;;;2.52;97.25
26865;BME280;40618;51.166;10.322;2023-12-20T08:55:03;97095.91;;;2.52;97.57
26865;BME280;40618;51.166;10.322;2023-12-20T08:57:29;97101.84;;;2.54;97.70
26865;BME280;40618;51.166;10.322;2023-12-20T08:59:57;97104.41;;;2.54;97.31
26865;BME280;40618;51.166;10.322;2023-12-20T09:02:22;97101.00;;;2.55;97.43
26865;BME280;40618;51.166;10.322;2023-12-20T09:04:48;97100.16;;;2.56;98.01
26865;BME280;40618;51.166;10.322;2023-12-20T09:07:23;97095.91;;;2.55;97.46
26865;BME280;40618;51.166;10.322;2023-12-20T09:09:50;97102.72;;;2.56;97.53
26865;BME280;40618;51.166;10.322;2023-12-20T09:12:20;97101.00;;;2.57;97.43
26865;BME280;40618;51.166;10.322;2023-12-20T09:14:46;97093.31;;;2.57;97.78
26865;BME280;40618;51.166;10.322;2023-12-20T09:17:12;97091.63;;;2.59;97.96
26865;BME280;40618;51.166;10.322;2023-12-20T09:19:38;97088.19;;;2.60;97.82
26865;BME280;40618;51.166;10.322;2023-12-20T09:22:05;97095.00;;;2.61;98.07
26865;BME280;40618;51.166;10.322;2023-12-20T09:24:31;97081.38;;;2.62;98.28
26865;BME280;40618;51.166;10.322;2023-12-20T09:26:56;97089.06;;;2.62;98.14
26865;BME280;40618;51.166;10.322;2023-12-20T09:29:22;97077.97;;;2.63;98.28
26865;BME280;40618;51.166;10.322;2023-12-20T09:31:48;97080.53;;;2.64;97.98
26865;BME280;40618;51.166;10.322;2023-12-20T09:34:15;97075.41;;;2.64;97.63
26865;BME280;40618;51.166;10.322;2023-12-20T09:36:42;97088.16;;;2.67;98.11
26865;BME280;40618;51.166;10.322;2023-12-20T09:39:13;97079.66;;;2.67;97.75
26865;BME280;40618;51.166;10.322;2023-12-20T09:41:43;97085.59;;;2.70;98.18
26865;BME280;40618;51.166;10.322;2023-12-20T09:44:14;97073.69;;;2.69;98.15
26865;BME280;40618;51.166;10.322;2023-12-20T09:46:44;97087.28;;;2.71;97.92
26865;BME280;40618;51.166;10.322;2023-12-20T09:49:12;97083.88;;;2.76;98.41
26865;BME280;40618;51.166;10.322;2023-12-20T09:51:39;97084.72;;;2.78;98.13
26865;BME280;40618;51.166;10.322;2023-12-20T09:54:06;97074.50;;;2.79;97.63
26865;BME280;40618;51.166;10.322;2023-12-20T09:56:31;97076.19;;;2.80;97.55
26865;BME280;40618;51.166;10.322;2023-12-20T09:58:59;97062.53;;;2.80;97.80
26865;BME280;40618;51.166;10.322;2023-12-20T10:01:25;97064.25;;;2.81;98.26
26865;BME280;40618;51.166;10.322;2023-12-20T10:03:54;97055.72;;;2.83;97.99
26865;BME280;40618;51.166;10.322;2023-12-20T10:06:21;97047.16;;;2.83;97.84
26865;BME280;40618;51.166;10.322;2023-12-20T10:08:47;97059.97;;;2.84;98.11
26865;BME280;40618;51.166;10.322;2023-12-20T10:11:13;97053.13;;;2.85;97.51
26865;BME280;40618;51.166;10.322;2023-12-20T10:13:40;97048.88;;;2.85;97.85
26865;BME280;40618;51.166;10.322;2023-12-20T10:16:07;97043.72;;;2.87;98.17
26865;BME280;40618;51.166;10.322;2023-12-20T10:18:32;97037.78;;;2.88;98.19
26865;BME280;40618;51.166;10.322;2023-12-20T10:20:58;97032.66;;;2.88;97.92
26865;BME280;40618;51.166;10.322;2023-12-20T10:23:25;97024.97;;;2.90;98.31
26865;BME280;40618;51.166;10.322;2023-12-20T10:25:58;97023.25;;;2.92;97.91
26865;BME280;40618;51.166;10.322;2023-12-20T10:28:24;97024.97;;;2.94;98.05
26865;BME280;40618;51.166;10.322;2023-12-20T10:30:54;97021.56;;;2.92;97.75
26865;BME280;40618;51.166;10.322;2023-12-20T10:33:24;97011.31;;;2.92;97.65
26865;BME280;40618;51.166;10.322;2023-12-20T10:35:52;97016.44;;;2.92;97.98
26865;BME280;40618;51.166;10.322;2023-12-20T10:38:18;97018.13;;;2.95;97.72
26865;BME280;40618;51.166;10.322;2023-12-20T10:40:45;97019.81;;;2.97;98.06
26865;BME280;40618;51.166;10.322;2023-12-20T10:43:12;97012.13;;;3.00;98.03
26865;BME280;40618;51.166;10.322;2023-12-20T10:45:38;97019.78;;;3.02;97.71
26865;BME280;40618;51.166;10.322;2023-12-20T10:48:07;97014.66;;;3.03;98.04
26865;BME280;40618;51.166;10.322;2023-12-20T10:50:36;97001.88;;;3.03;97.56
26865;BME280;40618;51.166;10.322;2023-12-20T10:53:03;96995.03;;;3.05;97.85
26865;BME280;40618;51.166;10.322;2023-12-20T10:55:30;96997.59;;;3.05;97.44
26865;BME280;40618;51.166;10.322;2023-12-20T10:58:00;96996.72;;;3.07;97.65
26865;BME280;40618;51.166;10.322;2023-12-20T11:00:29;96995.00;;;3.07;97.60
26865;BME280;40618;51.166;10.322;2023-12-20T11:02:59;96998.41;;;3.11;97.42
26865;BME280;40618;51.166;10.322;2023-12-20T11:05:41;96989.03;;;3.10;97.71
26865;BME280;40618;51.166;10.322;2023-12-20T11:10:42;97002.66;;;3.12;97.82
26865;BME280;40618;51.166;10.322;2023-12-20T11:13:21;96997.53;;;3.10;97.79
26865;BME280;40618;51.166;10.322;2023-12-20T11:15:50;97003.53;;;3.11;97.31
26865;BME280;40618;51.166;10.322;2023-12-20T11:18:15;96998.38;;;3.12;97.58
26865;BME280;40618;51.166;10.322;2023-12-20T11:20:42;96988.16;;;3.14;97.51
26865;BME280;40618;51.166;10.322;2023-12-20T11:23:08;96994.97;;;3.15;97.32
26865;BME280;40618;51.166;10.322;2023-12-20T11:25:49;96985.56;;;3.15;96.99
26865;BME280;40618;51.166;10.322;2023-12-20T11:28:21;96983.88;;;3.16;97.43
26865;BME280;40618;51.166;10.322;2023-12-20T11:30:50;96983.00;;;3.17;97.25
26865;BME280;40618;51.166;10.322;2023-12-20T11:36:19;96971.06;;;3.17;97.00
26865;BME280;40618;51.166;10.322;2023-12-20T11:38:58;96969.34;;;3.18;96.89
26865;BME280;40618;51.166;10.322;2023-12-20T11:41:25;96971.88;;;3.19;97.47
26865;BME280;40618;51.166;10.322;2023-12-20T11:43:55;96965.06;;;3.18;97.17
26865;BME280;40618;51.166;10.322;2023-12-20T11:46:21;96969.31;;;3.21;97.11
26865;BME280;40618;51.166;10.322;2023-12-20T11:48:47;96960.78;;;3.22;97.58
26865;BME280;40618;51.166;10.322;2023-12-20T11:51:14;96970.16;;;3.23;97.04
26865;BME280;40618;51.166;10.322;2023-12-20T11:53:40;96981.22;;;3.25;97.26
26865;BME280;40618;51.166;10.322;2023-12-20T11:56:07;96962.44;;;3.26;97.49
26865;BME280;40618;51.166;10.322;2023-12-20T11:58:34;96958.19;;;3.25;96.97
26865;BME280;40618;51.166;10.322;2023-12-20T12:01:01;96963.31;;;3.25;96.90
26865;BME280;40618;51.166;10.322;2023-12-20T12:03:29;96953.06;;;3.27;97.38
26865;BME280;40618;51.166;10.322;2023-12-20T12:05:55;96947.94;;;3.27;97.46
26865;BME280;40618;51.166;10.322;2023-12-20T12:08:21;96955.63;;;3.28;97.02
26865;BME280;40618;51.166;10.322;2023-12-20T12:10:46;96952.19;;;3.29;96.80
26865;BME280;40618;51.166;10.322;2023-12-20T12:13:12;96947.06;;;3.31;97.01
26865;BME280;40618;51.166;10.322;2023-12-20T12:15:39;96953.03;;;3.30;96.92
26865;BME280;40618;51.166;10.322;2023-12-20T12:18:05;96938.56;;;3.29;97.46
26865;BME280;40618;51.166;10.322;2023-12-20T12:20:32;96938.50;;;3.32;97.08
26865;BME280;40618;51.166;10.322;2023-12-20T12:23:02;96947.88;;;3.33;97.25
26865;BME280;40618;51.166;10.322;2023-12-20T12:25:30;96930.81;;;3.33;97.21
26865;BME280;40618;51.166;10.322;2023-12-20T12:28:00;96923.13;;;3.33;97.30
26865;BME280;40618;51.166;10.322;2023-12-20T12:30:26;96905.22;;;3.33;97.08
26865;BME280;40618;51.166;10.322;2023-12-20T12:32:53;96901.81;;;3.34;97.16
26865;BME280;40618;51.166;10.322;2023-12-20T12:35:21;96906.94;;;3.34;97.09
26865;BME280;40618;51.166;10.322;2023-12-20T12:37:47;96902.69;;;3.32;97.07
26865;BME280;40618;51.166;10.322;2023-12-20T12:40:15;96883.94;;;3.31;97.06
26865;BME280;40618;51.166;10.322;2023-12-20T12:42:44;96879.66;;;3.32;96.94
26865;BME280;40618;51.166;10.322;2023-12-20T12:45:10;96872.81;;;3.34;96.84
26865;BME280;40618;51.166;10.322;2023-12-20T12:47:39;96879.66;;;3.35;97.12
26865;BME280;40618;51.166;10.322;2023-12-20T12:50:05;96870.25;;;3.35;97.01
26865;BME280;40618;51.166;10.322;2023-12-20T12:52:32;96883.06;;;3.34;96.79
26865;BME280;40618;51.166;10.322;2023-12-20T12:54:58;96869.41;;;3.35;96.64
26865;BME280;40618;51.166;10.322;2023-12-20T12:57:23;96854.03;;;3.33;96.91
26865;BME280;40618;51.166;10.322;2023-12-20T12:59:49;96856.63;;;3.32;96.91
26865;BME280;40618;51.166;10.322;2023-12-20T13:02:15;96860.06;;;3.31;96.54